Time;durP1;ratioP1;P1;durP2;ratioP2;P2;SDS_P1;SDS_P2;PMS_P1;PMS_P2;Temp;Humidity;BMP_temperature;BMP_pressure;BME280_temperature;BME280_humidity;BME280_pressure;Samples;Min_cycle;Max_cycle;Signal;HPM_P1;HPM_P2
2021/01/24 00:01:44;;;;;;;4.57;2.85;;;;;;;1.32;90.61;94613.91;5024451;28;20106;-64
2021/01/24 00:04:10;;;;;;;5.35;2.75;;;;;;;1.36;90.76;94617.44;5019120;28;20095;-65
2021/01/24 00:06:35;;;;;;;2.55;1.95;;;;;;;1.33;90.63;94626.22;5022898;28;20069;-65
2021/01/24 00:09:01;;;;;;;3.88;2.38;;;;;;;1.28;91.17;94624.63;5021272;28;20041;-64
2021/01/24 00:11:26;;;;;;;4.97;2.75;;;;;;;1.24;91.18;94625.69;5017027;28;20096;-66
2021/01/24 00:13:52;;;;;;;4.03;2.70;;;;;;;1.24;91.07;94623.00;5024247;28;20478;-66
2021/01/24 00:16:18;;;;;;;4.85;2.83;;;;;;;1.30;90.22;94621.56;5023015;28;20123;-63
2021/01/24 00:18:43;;;;;;;4.15;2.30;;;;;;;1.21;90.80;94629.13;5033381;28;20092;-65
2021/01/24 00:21:09;;;;;;;4.30;2.00;;;;;;;1.18;90.62;94643.31;5019578;28;20040;-65
2021/01/24 00:23:34;;;;;;;3.10;1.95;;;;;;;1.13;91.42;94630.88;5021503;28;20108;-63
2021/01/24 00:25:59;;;;;;;3.63;2.35;;;;;;;1.13;90.49;94628.97;5038473;28;20061;-63
2021/01/24 00:28:26;;;;;;;4.47;2.75;;;;;;;1.13;90.42;94633.56;5002738;28;20045;-64
2021/01/24 00:30:51;;;;;;;3.05;2.45;;;;;;;1.12;91.61;94637.41;5023893;28;20033;-65
2021/01/24 00:33:17;;;;;;;3.38;2.45;;;;;;;1.02;91.55;94641.44;5016830;28;20490;-63
2021/01/24 00:35:43;;;;;;;3.20;2.15;;;;;;;1.07;90.96;94648.50;5031316;28;20050;-65
2021/01/24 00:38:09;;;;;;;2.45;2.10;;;;;;;1.07;91.19;94649.25;5033172;28;20076;-63
2021/01/24 00:40:34;;;;;;;2.30;1.90;;;;;;;1.06;91.30;94663.88;5035047;28;20045;-64
2021/01/24 00:43:00;;;;;;;3.35;2.00;;;;;;;1.14;90.83;94664.81;5023944;28;20491;-63
2021/01/24 00:45:25;;;;;;;3.35;2.10;;;;;;;1.19;90.91;94680.69;4998732;28;20064;-65
2021/01/24 00:47:51;;;;;;;3.28;1.90;;;;;;;1.22;90.28;94679.19;5021070;28;20470;-64
2021/01/24 00:50:16;;;;;;;2.55;2.00;;;;;;;1.27;90.74;94692.41;5017669;28;20040;-63
2021/01/24 00:52:42;;;;;;;2.15;1.80;;;;;;;1.33;89.79;94683.69;5019355;28;20502;-62
2021/01/24 00:55:08;;;;;;;2.38;1.98;;;;;;;1.30;89.58;94692.47;5015612;28;20045;-63
2021/01/24 00:57:33;;;;;;;3.42;2.17;;;;;;;1.30;89.61;94684.38;5014629;28;20250;-64
2021/01/24 00:59:59;;;;;;;2.65;1.92;;;;;;;1.32;89.51;94689.41;5000963;28;20084;-62
2021/01/24 01:02:25;;;;;;;2.83;2.05;;;;;;;1.25;90.28;94687.34;4993651;28;20102;-64
2021/01/24 01:04:51;;;;;;;3.13;2.47;;;;;;;1.24;89.46;94683.13;5015833;28;20045;-63
2021/01/24 01:07:16;;;;;;;2.60;2.00;;;;;;;1.27;90.16;94692.41;5016208;28;20526;-63
2021/01/24 01:09:41;;;;;;;4.88;2.35;;;;;;;1.22;89.75;94684.59;5016037;28;20040;-63
2021/01/24 01:12:07;;;;;;;3.50;1.90;;;;;;;1.18;89.33;94686.44;5001242;28;20044;-63
2021/01/24 01:14:32;;;;;;;3.20;1.95;;;;;;;1.15;89.05;94706.78;5017200;28;20046;-62
2021/01/24 01:16:58;;;;;;;3.47;1.88;;;;;;;1.13;89.00;94695.59;5023302;28;20068;-63
2021/01/24 01:19:24;;;;;;;2.97;1.85;;;;;;;1.13;87.75;94706.38;5019487;28;20528;-64
2021/01/24 01:21:49;;;;;;;2.42;2.22;;;;;;;1.04;88.03;94703.09;5021895;28;20046;-63
2021/01/24 01:24:15;;;;;;;2.30;1.60;;;;;;;1.03;88.25;94707.72;5018362;28;20045;-65
2021/01/24 01:26:40;;;;;;;1.80;1.20;;;;;;;1.05;88.28;94694.66;5022915;28;20033;-63
2021/01/24 01:29:05;;;;;;;4.85;1.40;;;;;;;1.08;87.22;94706.66;5017593;28;20040;-64
2021/01/24 01:31:31;;;;;;;3.55;1.67;;;;;;;1.04;88.01;94706.56;5021780;28;20049;-64
2021/01/24 01:33:56;;;;;;;2.40;1.60;;;;;;;0.95;88.42;94714.91;5022300;28;20187;-63
2021/01/24 01:36:22;;;;;;;3.50;1.60;;;;;;;0.93;89.13;94713.66;5013168;28;20483;-63
2021/01/24 01:38:48;;;;;;;3.00;1.10;;;;;;;0.93;88.55;94717.13;5022721;28;20126;-63
2021/01/24 01:41:14;;;;;;;1.92;1.10;;;;;;;0.90;89.12;94714.38;5014837;28;20045;-63
2021/01/24 01:43:39;;;;;;;4.32;1.38;;;;;;;0.87;88.53;94710.47;5027382;23;20054;-60
2021/01/24 01:46:05;;;;;;;2.13;1.77;;;;;;;0.83;88.95;94709.63;4967964;28;20126;-62
2021/01/24 01:48:32;;;;;;;2.42;1.55;;;;;;;0.85;89.06;94711.97;4985852;28;20518;-63
2021/01/24 01:50:57;;;;;;;2.63;1.20;;;;;;;0.81;89.30;94716.47;5003005;28;20498;-59
2021/01/24 01:53:24;;;;;;;1.88;1.33;;;;;;;0.76;89.81;94715.63;4997958;28;20073;-57
2021/01/24 01:55:49;;;;;;;1.63;1.30;;;;;;;0.76;89.88;94723.72;4989375;28;20045;-60
2021/01/24 01:58:15;;;;;;;2.60;1.70;;;;;;;0.79;90.07;94727.59;4978112;28;20038;-59
2021/01/24 02:00:41;;;;;;;3.15;2.08;;;;;;;0.79;90.48;94729.53;4983778;28;20038;-59
2021/01/24 02:03:28;;;;;;;2.53;1.80;;;;;;;0.85;90.29;94736.22;4975800;28;20047;-61
2021/01/24 02:06:05;;;;;;;2.50;2.00;;;;;;;0.91;90.37;94743.66;4965918;28;20042;-59
2021/01/24 02:08:51;;;;;;;2.40;1.77;;;;;;;0.97;90.10;94741.47;4982729;28;20080;-62
2021/01/24 02:11:33;;;;;;;3.00;2.17;;;;;;;0.93;89.93;94749.47;4978934;28;20125;-62
2021/01/24 02:14:08;;;;;;;3.05;2.10;;;;;;;0.97;90.18;94759.56;4982335;28;20046;-63
2021/01/24 02:16:36;;;;;;;3.72;2.58;;;;;;;0.95;90.57;94755.31;4996090;28;20049;-60
2021/01/24 02:19:09;;;;;;;2.28;1.95;;;;;;;1.03;89.81;94761.66;5001834;28;20537;-61
2021/01/24 02:21:38;;;;;;;2.95;1.90;;;;;;;1.15;89.63;94763.41;5000710;28;20077;-61
2021/01/24 02:24:08;;;;;;;2.87;2.07;;;;;;;1.09;90.31;94783.72;4998419;28;20034;-63
2021/01/24 02:26:39;;;;;;;3.28;2.60;;;;;;;1.02;90.16;94786.25;5001755;28;20046;-61
2021/01/24 02:29:14;;;;;;;5.35;2.50;;;;;;;0.90;90.81;94792.53;4996540;28;20128;-64
2021/01/24 02:31:40;;;;;;;6.35;2.22;;;;;;;0.81;91.78;94784.66;5006346;28;20129;-63
2021/01/24 02:34:08;;;;;;;3.13;2.35;;;;;;;0.69;91.75;94788.22;4998372;28;20041;-59
2021/01/24 02:36:35;;;;;;;3.25;2.40;;;;;;;0.62;92.39;94788.06;4983364;28;20134;-60
2021/01/24 02:39:04;;;;;;;4.28;1.70;;;;;;;0.52;91.28;94778.59;5002443;28;20501;-60
2021/01/24 02:41:31;;;;;;;2.85;1.90;;;;;;;0.49;91.34;94784.69;4998573;28;20066;-58
2021/01/24 02:43:58;;;;;;;3.10;2.13;;;;;;;0.48;90.60;94788.50;4981104;28;20043;-60
2021/01/24 02:46:25;;;;;;;3.75;1.95;;;;;;;0.42;90.71;94791.81;4997031;28;20648;-62
2021/01/24 02:48:52;;;;;;;1.98;1.63;;;;;;;0.49;89.29;94792.00;4983633;28;20038;-59
2021/01/24 02:51:19;;;;;;;1.58;1.00;;;;;;;0.47;86.56;94803.09;4996751;28;20034;-64
2021/01/24 02:53:48;;;;;;;1.48;1.20;;;;;;;0.48;85.43;94803.88;5001327;28;20064;-63
2021/01/24 02:56:16;;;;;;;3.03;1.10;;;;;;;0.51;84.77;94806.66;4980460;28;20122;-62
2021/01/24 02:58:42;;;;;;;1.00;0.90;;;;;;;0.45;85.41;94813.44;4981094;28;20120;-62
2021/01/24 03:01:08;;;;;;;1.30;1.10;;;;;;;0.42;84.09;94813.38;4978015;28;20452;-62
2021/01/24 03:03:33;;;;;;;1.20;1.10;;;;;;;0.34;84.90;94815.88;5001588;28;20038;-60
2021/01/24 03:05:59;;;;;;;1.00;0.98;;;;;;;0.34;84.43;94823.97;4997073;28;20046;-59
2021/01/24 03:08:25;;;;;;;1.05;0.95;;;;;;;0.33;83.14;94824.31;5005714;28;20041;-60
2021/01/24 03:10:51;;;;;;;1.10;1.00;;;;;;;0.32;83.63;94820.81;5001930;28;20052;-60
2021/01/24 03:13:28;;;;;;;1.10;1.00;;;;;;;0.32;82.51;94845.03;4993354;28;20064;-61
2021/01/24 03:15:55;;;;;;;0.85;0.85;;;;;;;0.29;83.16;94843.06;5010895;28;20074;-61
2021/01/24 03:18:24;;;;;;;1.15;0.80;;;;;;;0.36;82.22;94837.06;5004614;28;20496;-60
2021/01/24 03:20:52;;;;;;;1.08;0.98;;;;;;;0.29;82.59;94853.03;5010625;28;20073;-57
2021/01/24 03:23:20;;;;;;;0.93;0.90;;;;;;;0.24;83.53;94861.38;4994808;28;20042;-60
2021/01/24 03:25:46;;;;;;;1.27;1.05;;;;;;;0.22;83.41;94853.66;5006145;28;20092;-59
2021/01/24 03:28:12;;;;;;;1.05;0.98;;;;;;;0.13;84.10;94866.50;5002037;28;20049;-59
2021/01/24 03:30:38;;;;;;;1.20;1.10;;;;;;;0.08;84.20;94872.88;4994466;28;20041;-60
2021/01/24 03:33:05;;;;;;;1.40;1.30;;;;;;;0.09;84.13;94876.34;5017644;28;20076;-63
2021/01/24 03:35:31;;;;;;;1.15;1.05;;;;;;;0.10;83.66;94878.72;5016770;28;20057;-59
2021/01/24 03:37:56;;;;;;;2.08;1.30;;;;;;;-0.01;84.48;94883.03;5017705;28;20041;-64
2021/01/24 03:40:22;;;;;;;1.35;1.02;;;;;;;-0.05;84.32;94901.00;5034222;28;20235;-62
2021/01/24 03:42:48;;;;;;;2.58;1.10;;;;;;;0.04;82.86;94898.13;4997111;28;20050;-58
2021/01/24 03:45:14;;;;;;;1.92;1.10;;;;;;;-0.01;83.44;94912.63;4996054;28;20041;-57
2021/01/24 03:47:40;;;;;;;1.30;1.20;;;;;;;-0.07;83.81;94906.72;4999512;28;20041;-57
2021/01/24 03:50:07;;;;;;;1.20;1.05;;;;;;;-0.08;83.38;94917.81;5002305;28;20042;-59
2021/01/24 03:52:33;;;;;;;1.10;1.00;;;;;;;-0.12;83.94;94919.63;5019162;28;20045;-60
2021/01/24 03:54:58;;;;;;;1.10;1.00;;;;;;;-0.18;83.79;94916.41;5014699;28;20033;-59
2021/01/24 03:57:26;;;;;;;1.65;1.00;;;;;;;-0.11;83.62;94919.28;4997459;28;20096;-59
2021/01/24 03:59:53;;;;;;;1.30;1.17;;;;;;;-0.10;83.57;94920.06;5009325;28;20038;-58
2021/01/24 04:02:19;;;;;;;1.52;1.38;;;;;;;-0.14;84.12;94917.28;4995386;28;20112;-60
2021/01/24 04:04:45;;;;;;;2.70;1.17;;;;;;;-0.16;84.40;94927.59;5001052;28;20053;-59
2021/01/24 04:07:11;;;;;;;0.90;0.90;;;;;;;-0.13;83.43;94924.22;5004013;28;20034;-58
2021/01/24 04:09:36;;;;;;;2.05;1.35;;;;;;;-0.18;83.43;94931.75;5020070;28;20045;-60
2021/01/24 04:12:02;;;;;;;2.22;1.13;;;;;;;-0.25;84.13;94930.44;5016352;28;20053;-66
2021/01/24 04:14:28;;;;;;;1.73;1.30;;;;;;;-0.26;84.30;94931.53;5009062;28;20053;-60
2021/01/24 04:16:53;;;;;;;1.75;1.40;;;;;;;-0.28;83.52;94941.09;5025233;28;20498;-62
2021/01/24 04:19:19;;;;;;;1.10;1.00;;;;;;;-0.26;83.34;94930.75;5012386;28;20048;-62
2021/01/24 04:21:44;;;;;;;1.08;0.90;;;;;;;-0.25;82.67;94943.09;5018467;28;20069;-60
2021/01/24 04:24:10;;;;;;;1.25;1.15;;;;;;;-0.27;82.29;94943.44;4991627;28;20037;-62
2021/01/24 04:26:36;;;;;;;1.02;0.98;;;;;;;-0.27;82.37;94945.31;5013281;28;20447;-60
2021/01/24 04:29:01;;;;;;;0.93;0.85;;;;;;;-0.30;82.16;94940.63;5012177;28;20676;-58
2021/01/24 04:31:27;;;;;;;1.20;1.10;;;;;;;-0.26;81.85;94949.59;4982689;28;20491;-57
2021/01/24 04:33:53;;;;;;;1.00;0.90;;;;;;;-0.25;81.99;94953.88;4986173;28;20049;-58
2021/01/24 04:36:18;;;;;;;1.40;1.23;;;;;;;-0.27;81.62;94961.47;4999638;28;20584;-58
2021/01/24 04:38:44;;;;;;;1.20;1.10;;;;;;;-0.27;80.67;94958.78;5006452;28;20045;-58
2021/01/24 04:41:10;;;;;;;0.90;0.90;;;;;;;-0.31;81.15;94960.59;5009638;28;20038;-57
2021/01/24 04:43:36;;;;;;;1.20;1.10;;;;;;;-0.33;81.03;94968.22;4992417;28;20042;-59
2021/01/24 04:46:02;;;;;;;3.67;1.00;;;;;;;-0.32;80.74;94967.88;5014717;28;20079;-63
2021/01/24 04:48:28;;;;;;;1.20;1.10;;;;;;;-0.36;80.92;94974.25;5019494;28;20401;-57
2021/01/24 04:50:53;;;;;;;1.25;1.10;;;;;;;-0.37;80.88;94960.03;5023227;28;20399;-56
2021/01/24 04:53:19;;;;;;;0.82;0.82;;;;;;;-0.40;80.40;94976.84;4995987;28;20045;-59
2021/01/24 04:55:46;;;;;;;1.00;1.00;;;;;;;-0.39;80.61;94981.88;5007332;28;20449;-57
2021/01/24 04:58:11;;;;;;;1.05;1.05;;;;;;;-0.39;79.71;94981.13;5002781;28;20096;-60
2021/01/24 05:00:37;;;;;;;1.98;0.93;;;;;;;-0.33;79.75;94970.91;5011833;28;20074;-61
2021/01/24 05:03:03;;;;;;;2.08;1.10;;;;;;;-0.45;79.77;94977.06;4999724;28;20049;-66
2021/01/24 05:05:29;;;;;;;1.40;1.17;;;;;;;-0.45;79.78;94975.19;5003168;28;20045;-57
2021/01/24 05:07:59;;;;;;;1.30;1.20;;;;;;;-0.51;80.31;94973.06;5008860;28;20046;-60
2021/01/24 05:10:28;;;;;;;;;;;;;;;-0.55;80.08;94982.91;4998563;28;20424;-59
2021/01/24 05:12:55;;;;;;;0.90;0.90;;;;;;;-0.49;80.02;94979.66;4985094;28;19917;-60
2021/01/24 05:15:22;;;;;;;1.48;1.17;;;;;;;-0.61;80.68;94985.84;5004877;28;20053;-60
2021/01/24 05:17:58;;;;;;;2.05;1.38;;;;;;;-0.62;80.36;94996.91;5006478;28;20037;-59
2021/01/24 05:20:26;;;;;;;0.95;0.90;;;;;;;-0.68;80.33;95003.66;5008959;28;20045;-60
2021/01/24 05:22:52;;;;;;;0.98;0.98;;;;;;;-0.71;80.32;95007.00;5021788;28;20122;-59
2021/01/24 05:25:29;;;;;;;1.00;0.95;;;;;;;-0.74;81.02;95010.34;5017098;28;20041;-60
2021/01/24 05:27:55;;;;;;;1.08;1.05;;;;;;;-0.71;80.71;95018.53;5015412;28;20042;-62
2021/01/24 05:30:31;;;;;;;1.23;1.10;;;;;;;-0.70;80.74;95006.69;4996874;28;20046;-60
2021/01/24 05:32:59;;;;;;;1.00;0.90;;;;;;;-0.71;80.39;95028.50;5008248;28;20041;-62
2021/01/24 05:35:25;;;;;;;1.20;1.10;;;;;;;-0.89;79.84;95034.09;5002509;28;20238;-62
2021/01/24 05:37:51;;;;;;;1.13;1.02;;;;;;;-0.90;79.58;95035.22;5012680;28;20101;-62
2021/01/24 05:40:16;;;;;;;1.73;1.40;;;;;;;-0.82;79.26;95036.22;5003698;28;20038;-63
2021/01/24 05:42:43;;;;;;;1.40;1.30;;;;;;;-0.81;78.87;95035.91;4993196;28;20052;-59
2021/01/24 05:45:14;;;;;;;0.80;0.80;;;;;;;-0.79;78.62;95040.94;5003260;28;20179;-56
2021/01/24 05:47:44;;;;;;;1.63;1.30;;;;;;;-0.81;79.01;95043.97;4984660;28;20038;-56
2021/01/24 05:50:17;;;;;;;1.45;1.00;;;;;;;-0.88;79.20;95049.09;4986835;28;20502;-60
2021/01/24 05:52:47;;;;;;;1.10;1.00;;;;;;;-0.77;78.08;95052.94;5001942;28;20136;-61
2021/01/24 05:55:29;;;;;;;1.30;1.20;;;;;;;-0.64;77.50;95055.63;4996726;28;20490;-58
2021/01/24 05:57:54;;;;;;;0.90;0.90;;;;;;;-0.69;77.31;95055.84;5001692;28;20052;-57
2021/01/24 06:00:22;;;;;;;1.10;1.00;;;;;;;-0.71;77.36;95058.09;4986912;28;20117;-57
2021/01/24 06:02:48;;;;;;;1.30;1.20;;;;;;;-0.82;77.58;95060.44;5013356;28;20037;-59
2021/01/24 06:05:13;;;;;;;4.50;1.98;;;;;;;-0.79;77.40;95081.28;4985958;28;20045;-59
2021/01/24 06:07:39;;;;;;;1.17;1.08;;;;;;;-0.81;77.18;95083.47;4982585;28;20521;-61
2021/01/24 06:10:05;;;;;;;1.27;1.17;;;;;;;-0.80;77.25;95101.19;4960942;28;20053;-65
2021/01/24 06:12:34;;;;;;;1.05;0.98;;;;;;;-0.83;76.64;95085.72;4956556;28;20042;-61
2021/01/24 06:15:03;;;;;;;1.23;1.13;;;;;;;-0.83;76.93;95101.84;5009940;28;20049;-62
2021/01/24 06:17:38;;;;;;;2.30;1.33;;;;;;;-0.92;77.10;95098.47;5018350;28;20048;-57
2021/01/24 06:20:06;;;;;;;2.05;1.23;;;;;;;-0.92;76.51;95103.84;5006890;28;20065;-62
2021/01/24 06:22:45;;;;;;;1.73;1.05;;;;;;;-0.87;76.38;95104.41;5031950;28;20049;-58
2021/01/24 06:25:17;;;;;;;1.35;1.17;;;;;;;-0.91;76.53;95116.19;5014432;28;20530;-60
2021/01/24 06:27:52;;;;;;;1.60;1.50;;;;;;;-0.91;76.15;95126.94;5002422;28;20141;-60
2021/01/24 06:30:20;;;;;;;1.50;1.40;;;;;;;-0.93;76.55;95139.91;5001325;28;20048;-59
2021/01/24 06:32:46;;;;;;;1.67;1.10;;;;;;;-0.97;76.29;95129.03;5008893;28;20037;-60
2021/01/24 06:35:19;;;;;;;1.80;1.33;;;;;;;-0.97;76.21;95137.88;5002957;28;20064;-61
2021/01/24 06:37:52;;;;;;;1.85;1.50;;;;;;;-0.96;75.47;95133.28;4995538;28;20053;-59
2021/01/24 06:40:26;;;;;;;2.33;1.23;;;;;;;-0.99;75.49;95139.31;4996809;28;20060;-59
2021/01/24 06:43:02;;;;;;;2.60;1.33;;;;;;;-0.99;75.91;95145.50;5014007;28;20045;-58
2021/01/24 06:45:28;;;;;;;4.57;1.63;;;;;;;-1.12;76.56;95146.53;5014092;28;20053;-60
2021/01/24 06:48:00;;;;;;;1.35;1.10;;;;;;;-1.04;75.44;95148.38;5008185;28;20053;-58
2021/01/24 06:50:49;;;;;;;1.35;1.25;;;;;;;-1.09;75.37;95156.63;5015599;28;21111;-60
2021/01/24 06:53:17;;;;;;;2.20;1.30;;;;;;;-1.17;74.80;95157.47;5004550;28;20052;-59
2021/01/24 06:55:56;;;;;;;1.50;1.30;;;;;;;-1.19;73.87;95148.97;4989908;28;20041;-59
2021/01/24 06:58:26;;;;;;;1.67;1.52;;;;;;;-1.18;73.45;95148.66;4976678;28;20377;-59
2021/01/24 07:00:52;;;;;;;1.85;1.50;;;;;;;-1.17;72.81;95158.28;4990660;28;20042;-58
2021/01/24 07:03:19;;;;;;;1.25;1.15;;;;;;;-1.21;72.64;95168.09;5002893;28;20116;-55
2021/01/24 07:05:45;;;;;;;2.03;1.60;;;;;;;-1.28;73.52;95154.41;4985633;28;20038;-63
2021/01/24 07:08:31;;;;;;;2.28;1.63;;;;;;;-1.32;74.26;95172.31;5007868;28;20554;-62
2021/01/24 07:10:57;;;;;;;2.90;1.70;;;;;;;-1.38;75.08;95177.09;4994767;28;20042;-64
2021/01/24 07:13:25;;;;;;;2.45;1.95;;;;;;;-1.42;74.82;95178.88;4991442;28;20782;-58
2021/01/24 07:15:58;;;;;;;1.98;1.67;;;;;;;-1.47;75.47;95179.06;5005361;28;20137;-62
2021/01/24 07:18:24;;;;;;;1.60;1.50;;;;;;;-1.44;75.83;95189.16;5001674;28;20050;-59
2021/01/24 07:20:52;;;;;;;2.42;1.67;;;;;;;-1.46;76.01;95187.88;4998156;28;20050;-61
2021/01/24 07:23:18;;;;;;;4.15;1.67;;;;;;;-1.55;76.79;95191.44;4994426;28;20077;-60
2021/01/24 07:25:45;;;;;;;2.40;1.80;;;;;;;-1.54;77.36;95189.53;5000776;28;20517;-60
2021/01/24 07:28:13;;;;;;;2.95;2.03;;;;;;;-1.52;76.78;95197.25;4995463;28;20038;-62
2021/01/24 07:30:39;;;;;;;2.75;1.95;;;;;;;-1.58;77.18;95193.97;5007315;28;20095;-61
2021/01/24 07:33:05;;;;;;;2.00;1.80;;;;;;;-1.64;77.79;95206.81;4983501;28;20041;-57
2021/01/24 07:35:34;;;;;;;2.78;2.00;;;;;;;-1.64;78.20;95212.19;4963690;28;20053;-59
2021/01/24 07:38:00;;;;;;;2.50;2.20;;;;;;;-1.65;78.01;95212.50;5002898;28;20042;-60
2021/01/24 07:40:27;;;;;;;2.63;1.80;;;;;;;-1.68;78.11;95208.53;4976226;28;20057;-61
2021/01/24 07:42:53;;;;;;;5.68;2.30;;;;;;;-1.51;77.63;95218.41;5005636;28;20050;-60
2021/01/24 07:45:19;;;;;;;3.47;2.00;;;;;;;-1.24;75.54;95208.25;5003090;28;20050;-62
2021/01/24 07:47:44;;;;;;;3.63;1.80;;;;;;;-1.07;74.86;95224.28;5008563;28;20065;-60
2021/01/24 07:50:11;;;;;;;2.35;1.92;;;;;;;-0.97;74.16;95223.09;5001645;28;20170;-61
2021/01/24 07:52:37;;;;;;;3.25;1.92;;;;;;;-0.67;72.83;95231.06;5000836;28;20434;-61
2021/01/24 07:55:04;;;;;;;3.47;2.08;;;;;;;-0.19;70.85;95232.34;4995740;28;20107;-64
2021/01/24 07:57:30;;;;;;;2.67;1.80;;;;;;;-0.02;70.20;95231.34;4989561;28;20133;-61
2021/01/24 07:59:55;;;;;;;2.78;1.90;;;;;;;0.23;68.35;95232.16;5000321;28;20131;-61
2021/01/24 08:02:21;;;;;;;4.30;2.00;;;;;;;0.55;67.36;95238.56;4996545;28;20050;-60
2021/01/24 08:04:47;;;;;;;2.33;1.80;;;;;;;1.09;64.73;95245.56;5002435;28;20096;-59
2021/01/24 08:07:12;;;;;;;3.20;2.22;;;;;;;0.72;67.63;95253.72;5003698;28;20049;-63
2021/01/24 08:09:38;;;;;;;3.78;1.83;;;;;;;0.90;67.22;95254.28;5014912;28;20363;-59
2021/01/24 08:12:11;;;;;;;3.50;1.63;;;;;;;1.24;67.12;95257.56;5014687;28;20049;-66
2021/01/24 08:14:41;;;;;;;4.22;1.90;;;;;;;1.09;68.46;95255.59;5011258;28;20080;-62
2021/01/24 08:17:10;;;;;;;2.08;1.65;;;;;;;0.98;66.50;95274.13;5001085;28;20161;-61
2021/01/24 08:19:36;;;;;;;2.17;1.70;;;;;;;1.22;66.32;95264.44;5003480;28;20107;-61
2021/01/24 08:22:02;;;;;;;4.40;1.73;;;;;;;1.62;64.75;95261.72;5002213;28;20056;-66
2021/01/24 08:24:28;;;;;;;3.10;2.05;;;;;;;1.72;64.56;95261.19;5008249;28;20038;-59
2021/01/24 08:26:55;;;;;;;4.38;1.33;;;;;;;1.36;63.58;95254.03;5010947;28;20042;-64
2021/01/24 08:29:20;;;;;;;2.35;1.65;;;;;;;1.81;63.70;95255.66;4999018;28;20199;-59
2021/01/24 08:31:46;;;;;;;3.40;1.30;;;;;;;2.04;62.87;95253.16;5010804;28;20120;-63
2021/01/24 08:34:12;;;;;;;3.05;1.63;;;;;;;1.79;62.88;95252.53;4975379;28;20552;-61
2021/01/24 08:36:38;;;;;;;6.93;1.60;;;;;;;1.85;62.19;95259.22;5011535;28;20179;-60
2021/01/24 08:39:05;;;;;;;3.22;1.45;;;;;;;1.69;63.21;95253.00;5004059;28;20155;-66
2021/01/24 08:41:35;;;;;;;3.10;2.10;;;;;;;1.95;62.36;95262.56;5009359;28;20050;-61
2021/01/24 08:44:15;;;;;;;2.90;1.70;;;;;;;1.82;64.18;95262.63;5001662;28;20049;-59
2021/01/24 08:46:42;;;;;;;;;;;;;;;1.96;64.37;95272.22;5002450;28;20496;-60
2021/01/24 08:49:11;;;;;;;2.75;1.70;;;;;;;2.45;62.78;95269.25;4995584;28;19960;-59
2021/01/24 08:51:53;;;;;;;3.03;2.03;;;;;;;2.72;60.07;95277.56;5001115;28;20052;-59
2021/01/24 08:54:36;;;;;;;3.92;1.65;;;;;;;2.92;60.48;95278.41;5003770;28;20034;-59
2021/01/24 08:57:15;;;;;;;2.83;1.60;;;;;;;2.93;58.44;95280.00;5012640;28;20644;-65
2021/01/24 08:59:58;;;;;;;7.05;2.60;;;;;;;2.97;58.08;95283.56;5008485;28;20041;-62
2021/01/24 09:02:35;;;;;;;3.88;1.77;;;;;;;3.37;57.58;95280.59;5015032;28;20056;-61
2021/01/24 09:05:03;;;;;;;5.07;2.38;;;;;;;3.19;57.22;95279.44;5023860;28;20042;-56
2021/01/24 09:07:36;;;;;;;15.80;4.28;;;;;;;2.97;57.42;95291.69;5009987;28;20050;-59
2021/01/24 09:10:21;;;;;;;6.72;2.45;;;;;;;3.19;56.13;95296.44;5015850;28;20522;-66
2021/01/24 09:12:57;;;;;;;4.38;1.88;;;;;;;3.06;55.80;95303.88;5001180;28;20161;-58
2021/01/24 09:15:25;;;;;;;3.67;1.63;;;;;;;4.10;52.61;95296.31;4992184;28;20448;-58
2021/01/24 09:17:52;;;;;;;3.20;1.60;;;;;;;4.07;52.84;95297.03;5002970;28;20045;-62
2021/01/24 09:20:19;;;;;;;2.08;1.20;;;;;;;3.77;52.80;95287.59;4988951;28;20034;-61
2021/01/24 09:22:49;;;;;;;3.72;1.50;;;;;;;2.95;55.83;95291.25;4965281;28;20046;-62
2021/01/24 09:25:16;;;;;;;3.63;2.00;;;;;;;3.10;55.31;95300.47;4982633;28;20038;-63
2021/01/24 09:27:41;;;;;;;7.13;2.70;;;;;;;2.89;55.56;95298.84;5012952;28;20048;-63
2021/01/24 09:30:10;;;;;;;4.97;2.35;;;;;;;3.16;54.99;95307.19;5005106;28;20092;-62
2021/01/24 09:32:35;;;;;;;5.40;2.22;;;;;;;3.74;52.36;95312.66;5001084;28;20068;-63
2021/01/24 09:35:01;;;;;;;4.05;1.73;;;;;;;3.56;52.92;95304.16;4992892;28;20133;-61
2021/01/24 09:37:26;;;;;;;4.10;1.80;;;;;;;3.33;53.79;95303.28;5004586;28;20131;-60
2021/01/24 09:39:52;;;;;;;3.53;1.92;;;;;;;3.45;54.15;95312.06;5008317;28;20061;-59
2021/01/24 09:42:17;;;;;;;3.38;1.77;;;;;;;3.45;53.36;95322.13;5003537;28;20127;-59
2021/01/24 09:44:43;;;;;;;3.42;1.70;;;;;;;3.30;53.09;95293.97;5000264;28;20092;-62
2021/01/24 09:47:09;;;;;;;4.43;2.35;;;;;;;3.54;52.51;95311.09;4994795;28;20060;-58
2021/01/24 09:49:34;;;;;;;2.70;1.27;;;;;;;3.10;53.48;95306.69;5004536;28;20497;-62
2021/01/24 09:51:59;;;;;;;2.88;1.60;;;;;;;2.40;55.72;95310.81;5003657;28;20058;-63
2021/01/24 09:54:25;;;;;;;2.80;1.52;;;;;;;2.31;56.54;95318.31;4982736;28;20042;-65
2021/01/24 09:56:51;;;;;;;1.80;1.45;;;;;;;2.34;55.28;95323.03;5006311;28;20084;-61
2021/01/24 09:59:16;;;;;;;4.13;1.95;;;;;;;2.52;56.12;95326.19;4996372;28;20077;-63
2021/01/24 10:01:42;;;;;;;4.63;2.67;;;;;;;3.38;53.71;95320.03;5008646;28;20498;-62
2021/01/24 10:04:08;;;;;;;5.35;1.98;;;;;;;3.81;52.27;95320.16;5004236;28;20091;-62
2021/01/24 10:06:33;;;;;;;3.63;1.80;;;;;;;3.56;53.11;95315.00;5005631;28;20064;-60
2021/01/24 10:09:00;;;;;;;2.53;1.60;;;;;;;3.04;53.70;95325.09;4988654;28;20076;-61
2021/01/24 10:11:26;;;;;;;2.92;1.70;;;;;;;3.35;52.72;95338.91;4986640;28;20048;-65
2021/01/24 10:13:51;;;;;;;6.93;2.53;;;;;;;3.73;52.73;95321.94;5011078;28;20200;-60
2021/01/24 10:16:17;;;;;;;5.50;1.73;;;;;;;3.54;52.37;95340.88;5015854;28;20494;-62
2021/01/24 10:18:42;;;;;;;2.67;1.52;;;;;;;3.67;52.55;95320.63;5005234;28;20094;-62
2021/01/24 10:21:08;;;;;;;4.53;2.17;;;;;;;3.11;52.30;95348.81;5006469;28;20041;-63
2021/01/24 10:23:34;;;;;;;3.00;1.92;;;;;;;3.75;52.50;95345.97;5011197;28;20075;-59
2021/01/24 10:25:59;;;;;;;3.03;1.60;;;;;;;4.09;50.52;95343.50;4996687;28;20119;-59
2021/01/24 10:28:25;;;;;;;4.45;1.77;;;;;;;4.44;50.15;95346.13;4995543;28;20133;-62
2021/01/24 10:30:52;;;;;;;1.45;1.20;;;;;;;4.54;47.85;95342.06;4995808;28;20097;-61
2021/01/24 10:33:18;;;;;;;2.50;1.50;;;;;;;3.33;52.21;95352.81;4994023;28;20042;-60
2021/01/24 10:35:44;;;;;;;5.22;1.77;;;;;;;3.66;52.97;95350.81;5002947;28;20398;-59
2021/01/24 10:38:10;;;;;;;5.15;1.40;;;;;;;4.01;51.10;95353.44;5005808;28;20037;-59
2021/01/24 10:40:36;;;;;;;4.72;1.88;;;;;;;3.54;51.58;95362.53;5020627;28;20038;-61
2021/01/24 10:43:03;;;;;;;4.32;1.33;;;;;;;3.71;50.70;95356.72;5007520;28;20606;-58
2021/01/24 10:45:30;;;;;;;2.47;1.75;;;;;;;3.48;50.87;95364.72;4997702;28;20048;-63
2021/01/24 10:47:56;;;;;;;8.25;2.42;;;;;;;3.94;51.22;95356.00;4982385;28;20038;-59
2021/01/24 10:50:22;;;;;;;6.13;2.28;;;;;;;4.07;50.78;95357.44;4995220;28;20152;-60
2021/01/24 10:52:47;;;;;;;5.93;2.83;;;;;;;3.92;51.07;95363.72;4999601;28;20133;-61
2021/01/24 10:55:13;;;;;;;4.47;2.45;;;;;;;4.33;50.55;95353.28;4986195;28;20045;-63
2021/01/24 10:57:38;;;;;;;4.03;1.88;;;;;;;4.15;50.97;95356.44;5003859;28;20046;-60
2021/01/24 11:00:08;;;;;;;4.00;2.08;;;;;;;4.18;50.24;95353.00;5010473;28;20052;-66
2021/01/24 11:02:33;;;;;;;4.10;1.70;;;;;;;3.59;51.25;95351.44;5020869;28;20072;-62
2021/01/24 11:04:59;;;;;;;5.43;1.70;;;;;;;3.53;51.99;95359.03;5008238;28;20125;-64
2021/01/24 11:07:25;;;;;;;11.07;3.75;;;;;;;3.78;51.18;95343.31;5023220;28;20049;-61
2021/01/24 11:09:50;;;;;;;4.85;2.08;;;;;;;3.41;52.20;95351.03;5020495;28;20055;-58
2021/01/24 11:12:16;;;;;;;3.05;1.60;;;;;;;3.69;50.45;95361.72;5012540;28;20037;-63
2021/01/24 11:14:42;;;;;;;4.65;1.60;;;;;;;3.85;50.34;95350.00;5018627;28;20107;-62
2021/01/24 11:17:08;;;;;;;4.35;1.42;;;;;;;3.29;51.17;95338.41;5014170;28;20041;-64
2021/01/24 11:19:34;;;;;;;3.25;1.40;;;;;;;2.99;51.22;95355.13;4997993;28;20451;-60
2021/01/24 11:21:59;;;;;;;4.28;1.83;;;;;;;3.38;52.00;95365.28;4989651;28;20050;-59
2021/01/24 11:24:24;;;;;;;4.32;1.52;;;;;;;3.39;50.48;95345.97;4994236;28;20062;-62
2021/01/24 11:26:51;;;;;;;5.72;1.70;;;;;;;3.44;50.54;95377.41;4987083;28;20569;-63
2021/01/24 11:29:16;;;;;;;6.07;2.00;;;;;;;3.46;50.53;95375.13;4990812;28;20042;-59
2021/01/24 11:31:42;;;;;;;2.58;1.45;;;;;;;3.38;50.46;95376.88;4999222;28;20495;-60
2021/01/24 11:34:07;;;;;;;3.22;1.70;;;;;;;3.78;50.62;95373.13;5000790;28;20041;-59
2021/01/24 11:36:33;;;;;;;4.00;1.85;;;;;;;3.40;49.25;95361.09;5000633;28;20042;-62
2021/01/24 11:38:58;;;;;;;3.88;1.70;;;;;;;3.79;49.24;95371.97;5020798;28;20064;-61
2021/01/24 11:41:24;;;;;;;2.72;1.40;;;;;;;3.64;49.81;95379.00;5017786;28;20126;-60